createdAt,value
2019-01-25T00:00:42.342Z,23.87
2019-01-25T00:03:17.889Z,25.17
2019-01-25T00:05:42.461Z,23.77
2019-01-25T00:08:06.941Z,24.47
2019-01-25T00:10:31.383Z,24.73
2019-01-25T00:12:55.804Z,24.43
2019-01-25T00:15:20.283Z,24.03
2019-01-25T00:17:44.791Z,23.63
2019-01-25T00:20:21.009Z,23.20
2019-01-25T00:22:45.517Z,23.37
2019-01-25T00:28:07.056Z,22.87
2019-01-25T00:30:31.479Z,23.80
2019-01-25T00:32:55.883Z,23.17
2019-01-25T00:35:20.327Z,23.63
2019-01-25T00:37:44.726Z,23.40
2019-01-25T00:43:15.090Z,24.00
2019-01-25T00:48:36.685Z,24.73
2019-01-25T00:51:01.106Z,24.43
2019-01-25T00:53:25.517Z,24.80
2019-01-25T00:55:50.102Z,24.03
2019-01-25T00:58:14.524Z,24.67
2019-01-25T01:00:39.094Z,24.87
2019-01-25T01:03:17.282Z,23.83
2019-01-25T01:05:52.924Z,23.57
2019-01-25T01:08:17.340Z,23.63
2019-01-25T01:10:41.781Z,22.67
2019-01-25T01:13:06.261Z,23.17
2019-01-25T01:15:30.762Z,25.03
2019-01-25T01:17:55.173Z,23.60
2019-01-25T01:20:40.438Z,23.30
2019-01-25T01:23:04.931Z,22.83
2019-01-25T01:25:29.322Z,23.50
2019-01-25T01:27:53.742Z,22.13
2019-01-25T01:30:37.498Z,22.80
2019-01-25T01:33:01.922Z,23.17
2019-01-25T01:35:26.317Z,23.53
2019-01-25T01:37:51.290Z,24.30
2019-01-25T01:40:35.056Z,23.57
2019-01-25T01:45:54.036Z,23.70
2019-01-25T01:48:18.458Z,23.63
2019-01-25T01:50:42.886Z,23.73
2019-01-25T01:53:07.296Z,22.50
2019-01-25T01:55:31.723Z,23.80
2019-01-25T01:58:15.490Z,24.17
2019-01-25T02:00:39.917Z,22.87
2019-01-25T02:03:04.379Z,22.97
2019-01-25T02:05:28.844Z,23.17
2019-01-25T02:08:04.272Z,24.63
2019-01-25T02:10:29.874Z,23.87
2019-01-25T02:13:05.250Z,22.60
2019-01-25T02:15:29.643Z,24.27
2019-01-25T02:20:51.418Z,22.13
2019-01-25T02:23:16.660Z,22.97
2019-01-25T02:25:53.004Z,23.20
2019-01-25T02:28:17.413Z,24.20
2019-01-25T02:30:41.861Z,24.13
2019-01-25T02:33:06.277Z,23.60
2019-01-25T02:35:30.659Z,23.83
2019-01-25T02:37:55.165Z,23.93
2019-01-25T02:43:16.749Z,24.03
2019-01-25T02:45:41.149Z,24.37
2019-01-25T02:48:05.703Z,24.10
2019-01-25T02:50:30.129Z,24.47
2019-01-25T02:52:54.566Z,23.90
2019-01-25T02:58:15.847Z,24.63
2019-01-25T03:00:40.248Z,24.23
2019-01-25T03:03:04.898Z,23.30
2019-01-25T03:05:29.294Z,23.80
2019-01-25T03:10:50.852Z,24.13
2019-01-25T03:13:15.271Z,23.93
2019-01-25T03:15:39.697Z,25.27
2019-01-25T03:18:15.721Z,24.70
2019-01-25T03:20:40.115Z,24.40
2019-01-25T03:23:04.591Z,24.47
2019-01-25T03:25:29.017Z,24.33
2019-01-25T03:27:53.494Z,25.70
2019-01-25T03:35:50.643Z,24.97
2019-01-25T03:38:15.065Z,25.33
2019-01-25T03:40:39.476Z,26.27
2019-01-25T03:43:03.900Z,25.43
2019-01-25T03:45:49.085Z,24.93
2019-01-25T03:48:13.584Z,23.57
2019-01-25T03:50:37.984Z,25.03
2019-01-25T03:53:02.408Z,23.97
2019-01-25T03:55:26.964Z,23.93
2019-01-25T03:57:51.399Z,24.83
2019-01-25T04:00:35.148Z,26.93
2019-01-25T04:02:59.765Z,26.87
2019-01-25T04:05:24.187Z,25.83
2019-01-25T04:07:59.998Z,24.67
2019-01-25T04:13:21.899Z,24.53
2019-01-25T04:15:46.306Z,25.10
2019-01-25T04:18:10.773Z,25.00
2019-01-25T04:20:35.199Z,25.93
2019-01-25T04:22:59.671Z,25.70
2019-01-25T04:28:20.653Z,26.20
2019-01-25T04:30:45.067Z,26.90
2019-01-25T04:33:09.470Z,26.07
2019-01-25T04:35:35.453Z,26.20
2019-01-25T04:41:11.598Z,27.30
2019-01-25T04:43:37.844Z,27.77
2019-01-25T04:46:02.300Z,28.00
2019-01-25T04:48:26.700Z,28.37
2019-01-25T04:50:51.106Z,28.97
2019-01-25T04:53:15.524Z,26.23
2019-01-25T04:55:39.921Z,27.60
2019-01-25T04:58:25.161Z,27.70
2019-01-25T05:00:49.676Z,28.90
2019-01-25T05:03:14.343Z,28.57
2019-01-25T05:05:38.812Z,28.17
2019-01-25T05:10:59.656Z,27.73
2019-01-25T05:13:24.080Z,29.30
2019-01-25T05:15:48.478Z,28.83
2019-01-25T05:18:12.941Z,30.13
2019-01-25T05:20:37.432Z,30.27
2019-01-25T05:25:58.425Z,30.53
2019-01-25T05:28:22.830Z,29.20
2019-01-25T05:31:06.605Z,30.67
2019-01-25T05:33:31.016Z,30.17
2019-01-25T05:35:55.411Z,30.27
2019-01-25T05:38:19.835Z,31.30
2019-01-25T05:40:49.663Z,30.83
2019-01-25T05:43:14.125Z,30.73
2019-01-25T05:48:35.248Z,31.63
2019-01-25T05:51:18.984Z,30.23
2019-01-25T05:59:36.553Z,28.73
2019-01-25T06:02:00.984Z,30.10
2019-01-25T06:04:50.225Z,31.40
2019-01-25T06:07:14.650Z,29.63
2019-01-25T06:09:39.057Z,29.83
2019-01-25T06:12:03.502Z,30.63
2019-01-25T06:14:27.888Z,31.17
2019-01-25T06:16:52.317Z,31.87
2019-01-25T06:19:16.741Z,29.20
2019-01-25T06:21:41.144Z,31.20
2019-01-25T06:24:05.558Z,31.20
2019-01-25T06:26:30.022Z,30.87
2019-01-25T06:28:54.463Z,30.67
2019-01-25T06:34:16.123Z,31.30
2019-01-25T06:36:40.527Z,31.93
2019-01-25T06:42:02.085Z,31.47
2019-01-25T06:44:26.498Z,31.40
2019-01-25T06:46:50.948Z,31.40
2019-01-25T06:49:15.368Z,31.90
2019-01-25T06:51:39.778Z,31.50
2019-01-25T06:54:15.991Z,32.57
2019-01-25T06:56:40.400Z,32.87
2019-01-25T06:59:23.997Z,32.80
2019-01-25T07:02:07.519Z,32.90
2019-01-25T07:04:31.934Z,33.33
2019-01-25T07:06:56.355Z,33.27
2019-01-25T07:09:26.088Z,32.30
2019-01-25T07:11:51.758Z,33.13
2019-01-25T07:14:22.391Z,33.20
2019-01-25T07:16:46.791Z,33.20
2019-01-25T07:19:11.246Z,33.83
2019-01-25T07:21:35.654Z,32.73
2019-01-25T07:24:00.071Z,35.73
2019-01-25T07:26:24.508Z,34.80
2019-01-25T07:28:48.903Z,32.90
2019-01-25T07:31:13.387Z,32.80
2019-01-25T07:33:37.820Z,33.27
2019-01-25T07:36:02.308Z,31.60
2019-01-25T07:38:26.805Z,33.70
2019-01-25T07:40:51.216Z,33.13
2019-01-25T07:43:15.613Z,33.90
2019-01-25T07:45:40.017Z,34.27
2019-01-25T07:48:04.435Z,32.93
2019-01-25T07:50:28.849Z,31.70
2019-01-25T07:52:53.246Z,32.53
2019-01-25T07:55:17.709Z,33.70
2019-01-25T08:00:18.025Z,33.47
2019-01-25T08:02:42.479Z,32.93
2019-01-25T08:08:03.993Z,32.73
2019-01-25T08:10:28.402Z,33.90
2019-01-25T08:12:52.837Z,33.13
2019-01-25T08:18:14.713Z,32.13
2019-01-25T08:20:39.079Z,31.50
2019-01-25T08:23:15.441Z,31.53
2019-01-25T08:25:39.878Z,30.57
2019-01-25T08:28:09.533Z,31.87
2019-01-25T08:30:33.969Z,31.73
2019-01-25T08:32:58.341Z,32.50
2019-01-25T08:35:22.914Z,32.23
2019-01-25T08:37:52.991Z,31.90
2019-01-25T08:43:13.800Z,33.17
2019-01-25T08:45:38.231Z,32.70
2019-01-25T08:48:02.651Z,31.27
2019-01-25T08:53:23.661Z,30.37
2019-01-25T08:55:48.097Z,32.40
2019-01-25T08:58:12.520Z,31.47
2019-01-25T09:00:36.907Z,32.37
2019-01-25T09:03:01.329Z,32.30
2019-01-25T09:08:23.925Z,29.33
2019-01-25T09:10:48.319Z,31.30
2019-01-25T09:13:12.748Z,30.97
2019-01-25T09:15:37.152Z,32.20
2019-01-25T09:18:01.558Z,32.97
2019-01-25T09:20:33.320Z,32.93
2019-01-25T09:22:57.726Z,32.30
2019-01-25T09:25:22.231Z,29.60
2019-01-25T09:30:43.499Z,34.73
2019-01-25T09:33:07.908Z,32.67
2019-01-25T09:35:32.310Z,35.00
2019-01-25T09:37:56.739Z,40.10
2019-01-25T09:43:18.167Z,32.17
2019-01-25T09:45:42.559Z,32.00
2019-01-25T09:48:07.067Z,31.93
2019-01-25T09:50:31.479Z,32.57
2019-01-25T09:52:55.935Z,33.13
2019-01-25T09:55:39.697Z,32.70
2019-01-25T10:03:57.311Z,31.07
2019-01-25T10:06:34.343Z,34.23
2019-01-25T10:08:58.732Z,31.77
2019-01-25T10:11:23.170Z,31.27
2019-01-25T10:13:47.569Z,32.73
2019-01-25T10:16:11.998Z,30.87
2019-01-25T10:18:36.420Z,30.40
2019-01-25T10:21:00.823Z,30.20
2019-01-25T10:23:25.244Z,30.20
2019-01-25T10:25:49.642Z,29.63
2019-01-25T10:28:14.111Z,31.90
2019-01-25T10:30:38.595Z,30.63
2019-01-25T10:33:03.049Z,29.83
2019-01-25T10:35:27.464Z,30.87
2019-01-25T10:40:48.587Z,30.57
2019-01-25T10:43:12.997Z,30.00
2019-01-25T10:45:56.742Z,31.33
2019-01-25T10:48:21.188Z,30.63
2019-01-25T10:50:45.599Z,32.07
2019-01-25T10:53:10.069Z,30.93
2019-01-25T10:55:34.631Z,31.67
2019-01-25T10:57:59.102Z,31.13
2019-01-25T11:00:23.583Z,31.53
2019-01-25T11:02:48.053Z,33.07
2019-01-25T11:05:33.276Z,33.70
2019-01-25T11:07:57.745Z,34.07
2019-01-25T11:10:22.177Z,32.20
2019-01-25T11:12:46.651Z,33.37
2019-01-25T11:18:07.798Z,34.17
2019-01-25T11:20:32.273Z,33.97
2019-01-25T11:22:56.691Z,37.43
2019-01-25T11:25:41.475Z,35.03
2019-01-25T11:28:05.991Z,34.67
2019-01-25T11:30:30.427Z,34.80
2019-01-25T11:32:54.843Z,34.73
2019-01-25T11:35:19.354Z,36.20
2019-01-25T11:37:43.761Z,37.43
2019-01-25T11:43:08.750Z,36.03
2019-01-25T11:45:54.267Z,34.37
2019-01-25T11:48:16.055Z,39.20
2019-01-25T11:50:45.768Z,36.13
2019-01-25T11:53:10.201Z,38.47
2019-01-25T11:58:31.856Z,35.57
2019-01-25T12:00:56.256Z,35.63
2019-01-25T12:03:20.681Z,36.97
2019-01-25T12:05:45.101Z,38.60
2019-01-25T12:08:09.606Z,38.37
2019-01-25T12:10:34.038Z,38.63
2019-01-25T12:12:58.460Z,39.10
2019-01-25T12:15:23.060Z,39.20
2019-01-25T12:17:47.635Z,38.67
2019-01-25T12:20:32.856Z,35.67
2019-01-25T12:22:57.345Z,37.87
2019-01-25T12:25:21.752Z,34.40
2019-01-25T12:27:46.181Z,35.73
2019-01-25T12:30:30.897Z,38.60
2019-01-25T12:32:55.406Z,35.63
2019-01-25T12:35:19.845Z,37.03
2019-01-25T12:37:44.292Z,32.67
2019-01-25T12:40:28.032Z,36.20
2019-01-25T12:42:52.460Z,34.60
2019-01-25T12:48:13.736Z,33.13
2019-01-25T12:53:34.986Z,32.93
2019-01-25T12:55:59.404Z,32.83
2019-01-25T12:58:23.878Z,32.07
2019-01-25T13:03:23.587Z,35.93
2019-01-25T13:05:48.024Z,35.87
2019-01-25T13:08:12.438Z,35.00
2019-01-25T13:10:36.887Z,34.00
2019-01-25T13:13:01.298Z,36.37
2019-01-25T13:15:25.868Z,37.20
2019-01-25T13:18:09.696Z,36.80
2019-01-25T13:23:14.675Z,35.60
2019-01-25T13:25:39.102Z,35.70
2019-01-25T13:28:03.505Z,32.63
2019-01-25T13:33:25.017Z,29.27
2019-01-25T13:35:49.450Z,31.97
2019-01-25T13:38:13.899Z,29.03
2019-01-25T13:40:38.305Z,30.77
2019-01-25T13:43:02.763Z,28.30
2019-01-25T13:45:27.253Z,25.93
2019-01-25T13:48:02.996Z,29.10
2019-01-25T13:53:24.579Z,25.10
2019-01-25T13:58:25.414Z,23.63
2019-01-25T14:00:49.835Z,25.73
2019-01-25T14:03:14.236Z,25.10
2019-01-25T14:05:38.675Z,23.73
2019-01-25T14:08:15.761Z,23.20
2019-01-25T14:13:37.051Z,22.60
2019-01-25T14:16:01.470Z,21.80
2019-01-25T14:18:25.924Z,25.17
2019-01-25T14:20:50.353Z,23.47
2019-01-25T14:23:25.949Z,22.93
2019-01-25T14:25:50.361Z,24.57
2019-01-25T14:28:14.785Z,21.33
2019-01-25T14:33:36.265Z,21.87
2019-01-25T14:36:00.781Z,22.80
2019-01-25T14:38:25.247Z,21.47
2019-01-25T14:40:49.685Z,22.30
2019-01-25T14:43:14.087Z,21.83
2019-01-25T14:45:38.497Z,22.73
2019-01-25T14:50:59.726Z,22.73
2019-01-25T14:53:24.159Z,21.97
2019-01-25T14:55:48.580Z,22.77
2019-01-25T14:58:13.046Z,24.17
2019-01-25T15:00:37.532Z,25.53
2019-01-25T15:03:01.981Z,25.40
2019-01-25T15:05:26.397Z,25.87
2019-01-25T15:07:50.807Z,26.53
2019-01-25T15:10:35.113Z,26.30
2019-01-25T15:13:18.642Z,26.30
2019-01-25T15:15:43.068Z,25.30
2019-01-25T15:18:07.615Z,25.47
2019-01-25T15:20:32.061Z,24.37
2019-01-25T15:22:56.465Z,25.03
2019-01-25T15:27:57.425Z,24.20
2019-01-25T15:33:18.413Z,24.77
2019-01-25T15:35:42.870Z,26.40
2019-01-25T15:38:07.293Z,25.53
2019-01-25T15:40:31.992Z,26.33
2019-01-25T15:42:56.476Z,25.50
2019-01-25T15:45:41.705Z,24.87
2019-01-25T15:48:06.204Z,24.27
2019-01-25T15:53:27.582Z,25.90
2019-01-25T15:55:52.002Z,27.17
2019-01-25T15:58:16.477Z,27.33
2019-01-25T16:00:40.890Z,26.00
2019-01-25T16:03:05.827Z,28.17
2019-01-25T16:05:30.265Z,26.20
2019-01-25T16:08:15.457Z,26.23
2019-01-25T16:10:39.906Z,29.63
2019-01-25T16:13:16.958Z,26.27
2019-01-25T16:15:41.387Z,26.60
2019-01-25T16:18:05.840Z,24.23
2019-01-25T16:20:30.366Z,26.27
2019-01-25T16:23:15.587Z,25.37
2019-01-25T16:25:40.029Z,24.50
2019-01-25T16:30:40.371Z,25.77
2019-01-25T16:33:05.032Z,26.00
2019-01-25T16:35:29.687Z,27.27
2019-01-25T16:37:54.177Z,26.83
2019-01-25T16:40:37.966Z,27.57
2019-01-25T16:43:02.388Z,27.83
2019-01-25T16:45:46.242Z,25.67
2019-01-25T16:48:10.900Z,22.47
2019-01-25T16:53:31.939Z,23.17
2019-01-25T16:55:56.385Z,24.17
2019-01-25T17:00:56.961Z,27.43
2019-01-25T17:03:21.365Z,27.23
2019-01-25T17:05:45.860Z,27.80
2019-01-25T17:08:10.300Z,27.40
2019-01-25T17:10:34.888Z,25.23
2019-01-25T17:12:59.350Z,23.47
2019-01-25T17:15:23.918Z,25.27
2019-01-25T17:17:48.334Z,22.23
2019-01-25T17:20:32.179Z,23.93
2019-01-25T17:22:56.876Z,22.63
2019-01-25T17:25:32.726Z,21.30
2019-01-25T17:27:57.146Z,22.23
2019-01-25T17:30:42.795Z,22.50
2019-01-25T17:33:16.339Z,21.67
2019-01-25T17:35:40.794Z,21.70
2019-01-25T17:38:05.372Z,20.97
2019-01-25T17:40:50.651Z,21.63
2019-01-25T17:43:15.154Z,21.43
2019-01-25T17:45:39.603Z,21.03
2019-01-25T17:48:14.924Z,21.30
2019-01-25T17:50:39.333Z,20.53
2019-01-25T17:53:04.206Z,20.77
2019-01-25T17:55:28.698Z,21.30
2019-01-25T17:57:53.138Z,21.13
2019-01-25T18:00:56.073Z,21.50
2019-01-25T18:03:20.566Z,18.90
2019-01-25T18:05:45.048Z,20.23
2019-01-25T18:10:45.608Z,20.30
2019-01-25T18:13:10.058Z,20.27
2019-01-25T18:15:34.652Z,21.03
2019-01-25T18:17:59.133Z,20.80
2019-01-25T18:23:20.732Z,18.93
2019-01-25T18:25:57.202Z,19.60
2019-01-25T18:28:41.830Z,19.83
2019-01-25T18:31:18.402Z,18.17
2019-01-25T18:33:42.840Z,19.53
2019-01-25T18:36:07.262Z,19.90
2019-01-25T18:38:31.987Z,19.50
2019-01-25T18:40:56.464Z,19.77
2019-01-25T18:43:20.919Z,19.33
2019-01-25T18:45:45.355Z,19.93
2019-01-25T18:48:09.877Z,18.67
2019-01-25T18:50:34.294Z,17.77
2019-01-25T18:53:11.340Z,18.90
2019-01-25T18:55:35.765Z,18.03
2019-01-25T18:58:00.212Z,18.00
2019-01-25T19:00:26.005Z,17.63
2019-01-25T19:02:56.228Z,18.57
2019-01-25T19:08:37.155Z,18.67
2019-01-25T19:11:01.570Z,19.13
2019-01-25T19:13:26.019Z,19.57
2019-01-25T19:15:50.524Z,19.13
2019-01-25T19:18:14.950Z,18.47
2019-01-25T19:20:39.373Z,19.47
2019-01-25T19:23:03.866Z,19.33
2019-01-25T19:25:28.301Z,19.93
2019-01-25T19:27:52.763Z,20.13
2019-01-25T19:30:37.898Z,19.40
2019-01-25T19:33:02.496Z,20.80
2019-01-25T19:35:38.877Z,19.43
2019-01-25T19:38:29.823Z,19.40
2019-01-25T19:40:54.283Z,20.13
2019-01-25T19:43:18.780Z,21.77
2019-01-25T19:45:43.226Z,20.80
2019-01-25T19:48:07.797Z,19.87
2019-01-25T19:50:32.273Z,20.53
2019-01-25T19:52:56.679Z,20.63
2019-01-25T19:58:17.581Z,20.07
2019-01-25T20:03:38.554Z,20.03
2019-01-25T20:08:39.589Z,20.17
2019-01-25T20:11:04.103Z,20.70
2019-01-25T20:13:28.542Z,20.60
2019-01-25T20:15:52.975Z,21.43
2019-01-25T20:18:17.422Z,20.83
2019-01-25T20:20:41.920Z,19.93
2019-01-25T20:26:03.406Z,19.93
2019-01-25T20:28:30.834Z,20.73
2019-01-25T20:30:55.268Z,20.30
2019-01-25T20:33:19.698Z,21.60
2019-01-25T20:38:40.907Z,20.63
2019-01-25T20:41:05.315Z,21.43
2019-01-25T20:43:29.766Z,20.53
2019-01-25T20:45:54.265Z,20.33
2019-01-25T20:48:18.699Z,21.00
2019-01-25T20:50:43.174Z,20.87
2019-01-25T20:59:01.354Z,19.87
2019-01-25T21:01:25.797Z,20.37
2019-01-25T21:03:50.209Z,22.17
2019-01-25T21:06:16.756Z,23.57
2019-01-25T21:08:41.212Z,22.67
2019-01-25T21:11:05.813Z,21.93
2019-01-25T21:13:30.302Z,22.70
2019-01-25T21:15:54.756Z,23.17
2019-01-25T21:18:19.196Z,21.67
2019-01-25T21:23:40.945Z,21.33
2019-01-25T21:26:05.431Z,22.43
2019-01-25T21:28:29.860Z,21.87
2019-01-25T21:30:54.282Z,23.53
2019-01-25T21:33:18.702Z,22.27
2019-01-25T21:35:43.115Z,22.10
2019-01-25T21:38:07.781Z,22.33
2019-01-25T21:43:29.073Z,20.77
2019-01-25T21:45:53.520Z,23.60
2019-01-25T21:48:17.944Z,21.57
2019-01-25T21:51:03.168Z,23.03
2019-01-25T21:53:27.648Z,24.00
2019-01-25T21:55:52.100Z,22.73
2019-01-25T21:58:16.570Z,22.87
2019-01-25T22:00:41.051Z,24.17
2019-01-25T22:06:02.067Z,22.03
2019-01-25T22:08:26.572Z,22.77
2019-01-25T22:10:50.984Z,23.63
2019-01-25T22:13:15.463Z,22.20
2019-01-25T22:15:39.907Z,24.00
2019-01-25T22:18:15.334Z,24.10
2019-01-25T22:20:39.942Z,23.63
2019-01-25T22:23:16.993Z,25.30
2019-01-25T22:25:41.562Z,23.70
2019-01-25T22:28:05.983Z,23.13
2019-01-25T22:30:30.418Z,24.17
2019-01-25T22:35:51.599Z,21.97
2019-01-25T22:38:16.025Z,25.67
2019-01-25T22:40:40.445Z,25.80
2019-01-25T22:43:05.522Z,25.40
2019-01-25T22:45:36.545Z,25.63
2019-01-25T22:48:01.160Z,25.50
2019-01-25T22:53:23.017Z,24.53
2019-01-25T22:55:47.420Z,25.20
2019-01-25T22:58:11.966Z,24.93
2019-01-25T23:06:47.585Z,27.63
2019-01-25T23:12:09.268Z,27.13
2019-01-25T23:14:33.732Z,26.77
2019-01-25T23:16:58.152Z,27.80
2019-01-25T23:19:22.614Z,27.83
2019-01-25T23:21:47.019Z,25.83
2019-01-25T23:24:11.431Z,26.20
2019-01-25T23:29:23.108Z,27.23
2019-01-25T23:31:47.601Z,25.83
2019-01-25T23:34:11.989Z,26.00
2019-01-25T23:36:36.385Z,26.80
2019-01-25T23:39:00.810Z,25.37
2019-01-25T23:41:25.219Z,26.93
2019-01-25T23:43:49.639Z,27.97
2019-01-25T23:46:14.156Z,27.30
2019-01-25T23:48:38.544Z,27.17
2019-01-25T23:51:02.948Z,26.07
2019-01-25T23:53:27.347Z,26.97
2019-01-25T23:55:51.753Z,28.80
2019-01-25T23:58:16.161Z,25.83
